Time;durP1;ratioP1;P1;durP2;ratioP2;P2;SDS_P1;SDS_P2;PMS_P1;PMS_P2;Temp;Humidity;BMP_temperature;BMP_pressure;BME280_temperature;BME280_humidity;BME280_pressure;Samples;Min_cycle;Max_cycle;Signal;HPM_P1;HPM_P2
2022/05/15 00:01:15;;;;;;;10.83;4.60;;;9.40;99.90;;;;;;5019633;28;20192;-48
2022/05/15 00:03:42;;;;;;;9.83;4.60;;;9.40;99.90;;;;;;5020028;28;20192;-46
2022/05/15 00:06:09;;;;;;;14.50;4.77;;;9.40;99.90;;;;;;5012544;28;20224;-48
2022/05/15 00:08:38;;;;;;;12.70;4.10;;;9.40;99.90;;;;;;5020292;28;20291;-45
2022/05/15 00:11:07;;;;;;;9.43;4.37;;;9.30;99.90;;;;;;5025582;28;20204;-46
2022/05/15 00:13:34;;;;;;;12.87;4.53;;;9.30;99.90;;;;;;5023391;28;20191;-46
2022/05/15 00:16:01;;;;;;;11.73;4.20;;;9.20;99.90;;;;;;5018963;28;20227;-50
2022/05/15 00:18:29;;;;;;;8.67;4.10;;;9.20;99.90;;;;;;5028596;28;20265;-45
2022/05/15 00:20:56;;;;;;;12.50;4.60;;;9.20;99.90;;;;;;5007321;28;20204;-46
2022/05/15 00:23:25;;;;;;;10.23;4.93;;;9.20;99.90;;;;;;5021446;28;20199;-48
2022/05/15 00:25:53;;;;;;;7.33;4.07;;;9.20;99.90;;;;;;5028783;28;20216;-48
2022/05/15 00:28:20;;;;;;;8.13;4.53;;;9.10;99.90;;;;;;5028069;28;20203;-48
2022/05/15 00:30:48;;;;;;;13.20;4.23;;;9.10;99.90;;;;;;5007213;28;20192;-47
2022/05/15 00:33:15;;;;;;;14.63;5.83;;;9.10;99.90;;;;;;5008046;28;20219;-46
2022/05/15 00:35:44;;;;;;;8.40;4.60;;;9.10;99.90;;;;;;5010826;28;20997;-48
2022/05/15 00:38:13;;;;;;;10.67;4.23;;;9.10;99.90;;;;;;5024294;28;20200;-50
2022/05/15 00:40:44;;;;;;;10.87;3.87;;;9.10;99.90;;;;;;5019826;28;20247;-47
2022/05/15 00:43:12;;;;;;;7.03;4.30;;;9.10;99.90;;;;;;5024784;28;20192;-46
2022/05/15 00:45:40;;;;;;;12.27;4.47;;;9.00;99.90;;;;;;5024043;28;20216;-50
2022/05/15 00:48:07;;;;;;;10.63;4.53;;;9.10;99.90;;;;;;5025342;28;20227;-44
2022/05/15 00:50:37;;;;;;;10.37;4.03;;;9.00;99.90;;;;;;5003172;28;20212;-45
2022/05/15 00:53:10;;;;;;;9.97;4.63;;;8.90;99.90;;;;;;5007777;28;20226;-44
2022/05/15 00:55:42;;;;;;;8.80;4.10;;;9.00;99.90;;;;;;5019215;28;20993;-48
2022/05/15 00:58:14;;;;;;;10.60;4.50;;;9.00;99.90;;;;;;5009684;28;20196;-48
2022/05/15 01:00:42;;;;;;;13.27;4.50;;;9.00;99.90;;;;;;5019939;28;20203;-48
2022/05/15 01:03:12;;;;;;;10.90;4.57;;;8.90;99.90;;;;;;5025817;28;20196;-42
2022/05/15 01:05:42;;;;;;;9.33;4.70;;;8.80;99.90;;;;;;5018429;28;20223;-47
2022/05/15 01:08:11;;;;;;;10.63;4.97;;;8.70;99.90;;;;;;4994244;28;20204;-46
2022/05/15 01:10:42;;;;;;;9.33;4.67;;;8.70;99.90;;;;;;5016992;28;20211;-45
2022/05/15 01:13:10;;;;;;;8.17;4.43;;;8.70;99.90;;;;;;5007096;28;20696;-44
2022/05/15 01:15:37;;;;;;;13.30;5.10;;;8.60;99.90;;;;;;5006049;28;20235;-45
2022/05/15 01:18:08;;;;;;;9.23;4.57;;;8.60;99.90;;;;;;5017503;28;20211;-50
2022/05/15 01:20:37;;;;;;;8.00;4.77;;;8.50;99.90;;;;;;5013786;28;20212;-47
2022/05/15 01:23:05;;;;;;;11.37;4.80;;;8.60;99.90;;;;;;5006021;28;20207;-49
2022/05/15 01:25:35;;;;;;;9.67;4.40;;;8.60;99.90;;;;;;5018401;28;20239;-45
2022/05/15 01:28:07;;;;;;;12.53;4.80;;;8.70;99.90;;;;;;5005135;28;20287;-44
2022/05/15 01:30:38;;;;;;;13.60;4.77;;;8.70;99.90;;;;;;5018564;28;20286;-44
2022/05/15 01:33:07;;;;;;;12.23;4.47;;;8.60;99.90;;;;;;5007025;28;20582;-46
2022/05/15 01:35:33;;;;;;;13.27;4.83;;;8.50;99.90;;;;;;5017563;28;20234;-46
2022/05/15 01:38:02;;;;;;;8.90;4.20;;;8.50;99.90;;;;;;4998231;28;20208;-48
2022/05/15 01:40:31;;;;;;;9.07;4.13;;;8.40;99.90;;;;;;5018787;28;20192;-45
2022/05/15 01:42:59;;;;;;;9.23;5.30;;;8.40;99.90;;;;;;5019422;28;20184;-44
2022/05/15 01:45:26;;;;;;;12.10;4.70;;;8.40;99.90;;;;;;5018397;28;20226;-45
2022/05/15 01:47:54;;;;;;;10.40;4.97;;;8.40;99.90;;;;;;5008531;28;20385;-43
2022/05/15 01:50:22;;;;;;;6.67;4.03;;;8.40;99.90;;;;;;5003608;28;20341;-46
2022/05/15 01:52:48;;;;;;;9.63;4.20;;;8.40;99.90;;;;;;5004122;28;23468;-47
2022/05/15 01:55:16;;;;;;;10.30;5.00;;;8.30;99.90;;;;;;5020796;28;20355;-45
2022/05/15 01:57:46;;;;;;;11.57;4.87;;;8.20;99.90;;;;;;5003505;28;20196;-49
2022/05/15 02:00:20;;;;;;;10.67;4.37;;;8.20;99.90;;;;;;5010011;28;20210;-47
2022/05/15 02:02:48;;;;;;;13.00;4.87;;;8.20;99.90;;;;;;5021933;28;20200;-48
2022/05/15 02:05:17;;;;;;;7.03;4.30;;;8.10;99.90;;;;;;5021382;28;20744;-47
2022/05/15 02:07:45;;;;;;;18.77;5.17;;;8.10;99.90;;;;;;5001507;28;20439;-46
2022/05/15 02:10:12;;;;;;;8.43;4.27;;;8.00;99.90;;;;;;5013059;28;20270;-45
2022/05/15 02:12:40;;;;;;;10.43;4.70;;;8.00;99.90;;;;;;5017833;28;20281;-50
2022/05/15 02:15:10;;;;;;;11.17;5.50;;;8.00;99.90;;;;;;5007834;28;20750;-49
2022/05/15 02:17:38;;;;;;;7.73;4.47;;;7.90;99.90;;;;;;5023838;28;20191;-48
2022/05/15 02:20:10;;;;;;;11.13;5.17;;;7.90;99.90;;;;;;5019197;28;20204;-47
2022/05/15 02:22:38;;;;;;;6.40;4.60;;;7.90;99.90;;;;;;5019629;28;20905;-49
2022/05/15 02:25:07;;;;;;;9.93;4.80;;;7.80;99.90;;;;;;5005259;28;20210;-45
2022/05/15 02:27:39;;;;;;;12.03;5.00;;;7.70;99.90;;;;;;5016817;28;20930;-48
2022/05/15 02:30:09;;;;;;;11.17;5.17;;;7.70;99.90;;;;;;5020875;28;20212;-45
2022/05/15 02:32:36;;;;;;;8.13;4.60;;;7.60;99.90;;;;;;5019199;28;20212;-48
2022/05/15 02:35:05;;;;;;;9.27;4.70;;;7.60;99.90;;;;;;5001082;28;20206;-49
2022/05/15 02:37:32;;;;;;;8.70;5.23;;;7.70;99.90;;;;;;5024843;28;20257;-49
2022/05/15 02:39:59;;;;;;;10.67;4.97;;;7.70;99.90;;;;;;4990105;28;20208;-49
2022/05/15 02:42:27;;;;;;;6.80;4.60;;;7.60;99.90;;;;;;5019993;28;20193;-49
2022/05/15 02:44:54;;;;;;;11.73;5.03;;;7.70;99.90;;;;;;5023247;28;20382;-51
2022/05/15 02:47:22;;;;;;;12.30;5.13;;;7.80;99.90;;;;;;5027127;28;20697;-45
2022/05/15 02:52:33;;;;;;;9.50;4.43;;;7.70;99.90;;;;;;5017450;28;20208;-46
2022/05/15 02:55:00;;;;;;;6.43;4.00;;;7.70;99.90;;;;;;5003875;28;20660;-47
2022/05/15 02:57:27;;;;;;;8.83;4.80;;;7.60;99.90;;;;;;5005123;28;20220;-49
2022/05/15 02:59:54;;;;;;;9.23;4.60;;;7.60;99.90;;;;;;5020871;28;20254;-49
2022/05/15 03:02:22;;;;;;;11.17;5.30;;;7.60;99.90;;;;;;5023576;28;20656;-49
2022/05/15 03:04:49;;;;;;;10.13;5.10;;;7.60;99.90;;;;;;5023531;28;20212;-45
2022/05/15 03:07:17;;;;;;;10.40;5.10;;;7.60;99.90;;;;;;5002626;28;20246;-47
2022/05/15 03:09:43;;;;;;;13.90;5.80;;;7.50;99.90;;;;;;5026022;28;20927;-44
2022/05/15 03:12:10;;;;;;;11.30;4.63;;;7.50;99.90;;;;;;5006263;28;20204;-44
2022/05/15 03:14:37;;;;;;;6.97;4.67;;;7.40;99.90;;;;;;5021575;28;20865;-46
2022/05/15 03:17:05;;;;;;;10.80;4.70;;;7.40;99.90;;;;;;5026188;28;20218;-49
2022/05/15 03:19:33;;;;;;;8.57;4.60;;;7.40;99.90;;;;;;5008327;28;20200;-47
2022/05/15 03:22:00;;;;;;;10.10;5.37;;;7.50;99.90;;;;;;5006366;28;20200;-47
2022/05/15 03:24:27;;;;;;;10.80;4.87;;;7.50;99.90;;;;;;5026228;28;20207;-50
2022/05/15 03:26:54;;;;;;;13.30;5.30;;;7.40;99.90;;;;;;5008566;28;20250;-49
2022/05/15 03:29:21;;;;;;;14.53;5.83;;;7.40;99.90;;;;;;5025074;28;20188;-47
2022/05/15 03:31:48;;;;;;;11.80;4.87;;;7.50;99.90;;;;;;5004216;28;20833;-46
2022/05/15 03:34:17;;;;;;;13.93;6.10;;;7.50;99.90;;;;;;5024360;28;20766;-47
2022/05/15 03:36:47;;;;;;;11.83;5.40;;;7.50;99.90;;;;;;4999939;28;20231;-51
2022/05/15 03:39:16;;;;;;;13.43;5.97;;;7.50;99.90;;;;;;5023143;28;20208;-44
2022/05/15 03:41:44;;;;;;;12.23;6.43;;;7.40;99.90;;;;;;5020991;28;20222;-48
2022/05/15 03:44:10;;;;;;;9.00;5.77;;;7.40;99.90;;;;;;5012017;28;20215;-49
2022/05/15 03:46:37;;;;;;;11.37;5.37;;;7.40;99.90;;;;;;5023327;28;20278;-45
2022/05/15 03:49:04;;;;;;;13.77;5.87;;;7.40;99.90;;;;;;5025671;28;20607;-47
2022/05/15 03:51:30;;;;;;;14.33;5.60;;;7.40;99.90;;;;;;5024166;28;20279;-47
2022/05/15 03:53:59;;;;;;;7.83;5.00;;;7.50;99.90;;;;;;5006044;28;20235;-46
2022/05/15 03:59:13;;;;;;;11.23;6.03;;;7.50;99.90;;;;;;5013066;28;20250;-44
2022/05/15 04:01:40;;;;;;;12.77;5.93;;;7.50;99.90;;;;;;5007080;28;20317;-50
2022/05/15 04:04:08;;;;;;;11.23;6.47;;;7.50;99.90;;;;;;5023169;28;20283;-50
2022/05/15 04:06:35;;;;;;;11.10;5.87;;;7.50;99.90;;;;;;5009676;28;20217;-52
2022/05/15 04:09:04;;;;;;;11.37;5.57;;;7.50;99.90;;;;;;5020064;28;20204;-48
2022/05/15 04:11:32;;;;;;;11.33;5.87;;;7.40;99.90;;;;;;5013206;28;20192;-45
2022/05/15 04:13:59;;;;;;;10.40;6.00;;;7.40;99.90;;;;;;5007493;28;20270;-48
2022/05/15 04:16:25;;;;;;;13.20;6.53;;;7.40;99.90;;;;;;5015954;28;20238;-46
2022/05/15 04:18:53;;;;;;;13.33;5.67;;;7.40;99.90;;;;;;5025229;28;20200;-45
2022/05/15 04:21:20;;;;;;;11.60;6.33;;;7.40;99.90;;;;;;5027652;28;20200;-49
2022/05/15 04:23:47;;;;;;;17.97;6.27;;;7.50;99.90;;;;;;5008528;28;20279;-47
2022/05/15 04:26:15;;;;;;;13.33;6.27;;;7.50;99.90;;;;;;5021057;28;20227;-50
2022/05/15 04:28:42;;;;;;;16.17;7.10;;;7.50;99.90;;;;;;5021295;28;20249;-46
2022/05/15 04:31:09;;;;;;;11.53;6.40;;;7.50;99.90;;;;;;4987321;28;20454;-47
2022/05/15 04:33:36;;;;;;;14.03;6.40;;;7.50;99.90;;;;;;5019753;28;20228;-44
2022/05/15 04:36:03;;;;;;;11.80;6.37;;;7.60;99.90;;;;;;5018210;28;20234;-47
2022/05/15 04:38:30;;;;;;;14.20;6.13;;;7.70;99.90;;;;;;5020507;28;20193;-46
2022/05/15 04:40:57;;;;;;;12.63;7.03;;;7.70;99.90;;;;;;5023665;28;20298;-48
2022/05/15 04:43:25;;;;;;;15.90;8.23;;;7.80;99.90;;;;;;5018592;28;20195;-44
2022/05/15 04:45:52;;;;;;;12.83;6.70;;;7.80;99.90;;;;;;5007553;28;20232;-46
2022/05/15 04:48:19;;;;;;;15.37;7.50;;;7.80;99.90;;;;;;5016147;28;20199;-45
2022/05/15 04:50:46;;;;;;;10.40;6.70;;;7.90;99.90;;;;;;5015422;28;20985;-44
2022/05/15 04:53:13;;;;;;;11.53;6.47;;;8.00;99.90;;;;;;5024606;28;20688;-46
2022/05/15 04:55:40;;;;;;;11.10;5.93;;;8.00;99.90;;;;;;5015511;28;20223;-44
2022/05/15 04:58:06;;;;;;;14.50;6.83;;;8.00;99.90;;;;;;5015245;28;20699;-48
2022/05/15 05:00:35;;;;;;;12.30;6.17;;;8.10;99.90;;;;;;4999114;28;20204;-48
2022/05/15 05:03:02;;;;;;;14.00;7.00;;;8.20;99.90;;;;;;5016146;28;20200;-48
2022/05/15 05:05:29;;;;;;;11.33;6.13;;;8.20;99.90;;;;;;5011514;28;20707;-48
2022/05/15 05:07:56;;;;;;;13.20;6.17;;;8.20;99.90;;;;;;5020752;28;20230;-49
2022/05/15 05:10:23;;;;;;;12.13;6.40;;;8.30;99.90;;;;;;5017795;28;20204;-46
2022/05/15 05:12:50;;;;;;;9.93;6.23;;;8.40;99.90;;;;;;5012107;28;20231;-49
2022/05/15 05:15:16;;;;;;;15.37;7.57;;;8.40;99.90;;;;;;5016978;28;20205;-45
2022/05/15 05:17:44;;;;;;;11.27;6.50;;;8.50;99.90;;;;;;5005322;28;20200;-49
2022/05/15 05:20:14;;;;;;;10.07;6.30;;;8.60;99.90;;;;;;5025438;28;20211;-45
2022/05/15 05:22:41;;;;;;;10.93;7.03;;;8.60;99.90;;;;;;5018225;28;20208;-45
2022/05/15 05:25:09;;;;;;;14.73;7.10;;;8.70;99.90;;;;;;5025708;28;20257;-47
2022/05/15 05:27:37;;;;;;;12.10;6.90;;;8.80;99.90;;;;;;5009938;28;21650;-50
2022/05/15 05:30:05;;;;;;;14.40;7.00;;;8.90;99.90;;;;;;5020239;28;20604;-46
2022/05/15 05:32:32;;;;;;;13.07;7.57;;;8.90;99.90;;;;;;4998228;28;20219;-51
2022/05/15 05:35:00;;;;;;;15.93;7.07;;;9.00;99.90;;;;;;5005328;28;20345;-47
2022/05/15 05:37:27;;;;;;;13.63;6.60;;;9.10;99.90;;;;;;5022196;28;20216;-47
2022/05/15 05:39:54;;;;;;;19.20;7.07;;;9.20;99.90;;;;;;5021038;28;20656;-48
2022/05/15 05:42:21;;;;;;;13.37;6.60;;;9.30;99.90;;;;;;5022306;28;20550;-47
2022/05/15 05:44:48;;;;;;;13.67;6.73;;;9.40;99.90;;;;;;5014269;28;20203;-48
2022/05/15 05:47:14;;;;;;;13.30;7.00;;;9.50;99.90;;;;;;5004688;28;20219;-48
2022/05/15 05:49:43;;;;;;;19.67;6.17;;;9.60;99.90;;;;;;5016005;28;20208;-47
2022/05/15 05:52:11;;;;;;;9.87;6.33;;;9.70;99.90;;;;;;5021869;28;20188;-47
2022/05/15 05:54:38;;;;;;;12.27;6.30;;;9.80;99.90;;;;;;5022769;28;20242;-47
2022/05/15 05:57:05;;;;;;;15.70;6.93;;;9.90;99.90;;;;;;5017364;28;20212;-46
2022/05/15 05:59:32;;;;;;;16.03;7.10;;;10.00;99.90;;;;;;5017012;28;20703;-43
2022/05/15 06:01:59;;;;;;;13.43;6.63;;;10.10;99.90;;;;;;5001349;28;20208;-46
2022/05/15 06:04:41;;;;;;;14.37;6.40;;;10.20;99.90;;;;;;5018029;28;20563;-46
2022/05/15 06:07:12;;;;;;;15.90;6.57;;;10.30;99.90;;;;;;5007909;28;20538;-46
2022/05/15 06:09:39;;;;;;;10.70;4.77;;;10.60;99.90;;;;;;5021136;28;20201;-44
2022/05/15 06:12:07;;;;;;;8.63;4.67;;;10.70;99.90;;;;;;5015774;28;20211;-43
2022/05/15 06:14:33;;;;;;;13.67;5.03;;;10.70;99.90;;;;;;5020733;28;20234;-47
2022/05/15 06:17:00;;;;;;;10.50;3.70;;;10.80;99.90;;;;;;5023899;28;20220;-45
2022/05/15 06:19:27;;;;;;;10.50;3.43;;;10.80;99.90;;;;;;5008480;28;20877;-43
2022/05/15 06:21:54;;;;;;;9.87;4.00;;;11.00;99.90;;;;;;5029451;28;20660;-43
2022/05/15 06:24:22;;;;;;;9.95;4.05;;;11.10;99.90;;;;;;5017036;28;20442;-44
2022/05/15 06:26:49;;;;;;;9.30;3.72;;;11.20;99.90;;;;;;5019038;28;20453;-43
2022/05/15 06:29:16;;;;;;;5.78;2.20;;;11.50;99.90;;;;;;5017010;28;20433;-46
2022/05/15 06:31:43;;;;;;;3.57;2.50;;;11.50;99.90;;;;;;5026041;28;20199;-44
2022/05/15 06:34:10;;;;;;;5.27;2.50;;;11.60;99.90;;;;;;5005431;28;20907;-45
2022/05/15 06:36:37;;;;;;;8.52;2.70;;;11.70;99.90;;;;;;5024472;28;20479;-44
2022/05/15 06:39:04;;;;;;;4.90;2.33;;;11.90;99.90;;;;;;5021702;28;20200;-46
2022/05/15 06:41:32;;;;;;;7.87;2.43;;;11.90;99.90;;;;;;5018781;28;20201;-44
2022/05/15 06:43:59;;;;;;;9.00;2.40;;;11.90;99.90;;;;;;5016858;28;20566;-44
2022/05/15 06:46:26;;;;;;;7.70;2.83;;;12.00;99.90;;;;;;5019881;28;20211;-44
2022/05/15 06:48:53;;;;;;;1.73;1.47;;;12.10;99.90;;;;;;5008604;28;20251;-44
2022/05/15 06:51:20;;;;;;;4.23;1.70;;;12.10;99.90;;;;;;5033772;28;20245;-44
2022/05/15 06:53:48;;;;;;;4.77;1.97;;;12.10;99.90;;;;;;5001138;28;20219;-47
2022/05/15 06:59:02;;;;;;;5.03;1.43;;;12.30;99.90;;;;;;5018482;28;20204;-44
2022/05/15 07:01:29;;;;;;;4.07;1.43;;;12.40;99.90;;;;;;5015437;28;20255;-41
2022/05/15 07:03:56;;;;;;;4.83;2.00;;;12.50;99.90;;;;;;5029352;28;20581;-41
2022/05/15 07:06:24;;;;;;;4.47;1.90;;;12.60;99.90;;;;;;5009783;28;20222;-44
2022/05/15 07:08:51;;;;;;;2.83;1.43;;;12.60;99.90;;;;;;5017920;28;20548;-41
2022/05/15 07:11:18;;;;;;;3.47;1.30;;;12.70;99.90;;;;;;5020582;28;20580;-47
2022/05/15 07:13:44;;;;;;;5.60;1.47;;;12.70;99.90;;;;;;5023287;28;20281;-42
2022/05/15 07:16:12;;;;;;;2.97;1.60;;;12.70;99.90;;;;;;5011167;28;20563;-41
2022/05/15 07:18:41;;;;;;;3.50;1.17;;;12.80;99.90;;;;;;5024965;28;20479;-44
2022/05/15 07:21:08;;;;;;;2.90;1.20;;;12.90;99.90;;;;;;5003907;28;20211;-43
2022/05/15 07:23:35;;;;;;;2.17;1.00;;;13.00;99.90;;;;;;5023776;28;20195;-45
2022/05/15 07:26:03;;;;;;;3.23;1.30;;;13.10;99.90;;;;;;5029992;28;20216;-43
2022/05/15 07:28:30;;;;;;;3.50;1.30;;;13.20;99.90;;;;;;5028329;28;20192;-45
2022/05/15 07:30:57;;;;;;;2.60;1.20;;;13.20;99.90;;;;;;5015431;28;20208;-43
2022/05/15 07:33:28;;;;;;;1.03;0.83;;;13.40;99.90;;;;;;5011913;28;20200;-43
2022/05/15 07:35:55;;;;;;;2.70;1.50;;;13.50;99.90;;;;;;5007892;28;20227;-42
2022/05/15 07:38:23;;;;;;;2.43;0.87;;;13.50;99.90;;;;;;5014838;28;20220;-45
2022/05/15 07:40:50;;;;;;;2.87;1.07;;;13.60;99.90;;;;;;5030035;28;20229;-42
2022/05/15 07:43:17;;;;;;;2.73;1.40;;;13.60;99.90;;;;;;5025719;28;20941;-43
2022/05/15 07:45:44;;;;;;;1.10;1.00;;;13.70;99.90;;;;;;5020911;28;20230;-43
2022/05/15 07:48:10;;;;;;;1.87;0.80;;;13.70;99.90;;;;;;5012736;28;20246;-42
2022/05/15 07:50:38;;;;;;;0.80;0.80;;;13.80;99.90;;;;;;5014991;28;20207;-42
2022/05/15 07:53:05;;;;;;;2.67;0.80;;;13.80;99.90;;;;;;5013179;28;20195;-43
2022/05/15 07:55:32;;;;;;;1.57;0.80;;;13.90;99.90;;;;;;5021816;28;20224;-43
2022/05/15 07:57:59;;;;;;;1.50;1.00;;;13.90;99.90;;;;;;5025905;28;20215;-42
2022/05/15 08:00:27;;;;;;;1.50;0.70;;;14.00;99.90;;;;;;5020120;28;20898;-45
2022/05/15 08:03:05;;;;;;;1.10;1.00;;;14.10;99.90;;;;;;5010141;28;20208;-42
2022/05/15 08:08:18;;;;;;;2.90;1.10;;;14.30;99.90;;;;;;5008587;28;21009;-45
2022/05/15 08:10:46;;;;;;;8.17;4.97;;;14.30;99.90;;;;;;5019920;28;20196;-47
2022/05/15 08:13:19;;;;;;;1.27;1.00;;;14.50;99.90;;;;;;5020760;28;20197;-47
2022/05/15 08:15:46;;;;;;;3.00;0.97;;;14.60;99.90;;;;;;5014734;28;20247;-42
2022/05/15 08:23:48;;;;;;;2.13;1.10;;;14.90;99.90;;;;;;5006619;28;20233;-43
2022/05/15 08:26:15;;;;;;;0.70;0.70;;;15.10;99.90;;;;;;5017156;28;20212;-43
2022/05/15 08:28:42;;;;;;;4.53;0.60;;;15.20;99.90;;;;;;5023485;28;20228;-44
2022/05/15 08:31:09;;;;;;;1.13;0.70;;;15.30;99.90;;;;;;5020846;28;20196;-43
2022/05/15 08:33:37;;;;;;;1.33;0.83;;;15.30;99.90;;;;;;5012722;28;20207;-43
2022/05/15 08:36:06;;;;;;;1.50;0.73;;;15.40;99.90;;;;;;5023531;28;20295;-45
2022/05/15 08:38:33;;;;;;;2.43;0.97;;;15.40;99.90;;;;;;5000942;28;20235;-43
2022/05/15 08:41:04;;;;;;;0.83;0.43;;;15.40;99.90;;;;;;5026364;28;20196;-45
2022/05/15 08:43:42;;;;;;;1.00;0.40;;;15.40;99.90;;;;;;5023448;28;20703;-44
2022/05/15 08:46:25;;;;;;;1.87;0.60;;;15.50;99.90;;;;;;5017283;28;20299;-42
2022/05/15 08:48:55;;;;;;;1.23;0.60;;;15.60;99.90;;;;;;5020208;28;20200;-44
2022/05/15 08:51:22;;;;;;;1.13;0.67;;;15.70;99.90;;;;;;5021344;28;20207;-43
2022/05/15 08:53:51;;;;;;;1.87;0.53;;;15.80;99.90;;;;;;5004789;28;20213;-46
2022/05/15 08:56:19;;;;;;;0.60;0.53;;;15.80;99.90;;;;;;5024846;28;20725;-42
2022/05/15 08:58:51;;;;;;;0.83;0.57;;;15.80;99.70;;;;;;5021228;28;20211;-49
2022/05/15 09:01:22;;;;;;;1.03;0.50;;;15.80;99.20;;;;;;5021435;28;20203;-45
2022/05/15 09:03:49;;;;;;;0.80;0.70;;;15.90;99.10;;;;;;5004128;28;20200;-43
2022/05/15 09:06:28;;;;;;;0.97;0.60;;;16.00;99.40;;;;;;5017647;28;20223;-43
2022/05/15 09:09:19;;;;;;;1.90;0.60;;;16.20;98.00;;;;;;5005055;28;21984;-43
2022/05/15 09:11:55;;;;;;;1.00;0.50;;;16.30;96.90;;;;;;5017481;28;20947;-48
2022/05/15 09:14:36;;;;;;;1.80;0.50;;;16.10;96.10;;;;;;5022978;28;20251;-42
2022/05/15 09:17:15;;;;;;;1.80;0.50;;;16.20;96.50;;;;;;5013763;28;20226;-48
2022/05/15 09:19:42;;;;;;;2.33;0.50;;;16.20;95.80;;;;;;5001758;28;20212;-42
2022/05/15 09:22:13;;;;;;;1.40;0.50;;;16.30;96.10;;;;;;5021767;28;20199;-42
2022/05/15 09:24:45;;;;;;;1.17;0.43;;;16.30;95.00;;;;;;5006375;28;20247;-47
2022/05/15 09:27:17;;;;;;;1.50;0.57;;;16.30;93.80;;;;;;5023402;28;20277;-43
2022/05/15 09:29:51;;;;;;;0.73;0.57;;;16.30;94.30;;;;;;5028661;28;20196;-44
2022/05/15 09:32:30;;;;;;;0.63;0.47;;;16.30;94.50;;;;;;5020707;28;20207;-43
2022/05/15 09:34:59;;;;;;;1.90;0.57;;;16.40;93.50;;;;;;5011900;28;20215;-43
2022/05/15 09:40:40;;;;;;;1.50;0.60;;;16.60;93.30;;;;;;4925410;28;20289;-44
2022/05/15 09:43:33;;;;;;;1.37;0.50;;;16.60;92.80;;;;;;4941271;29;20206;-43
2022/05/15 09:46:06;;;;;;;2.30;0.50;;;16.70;93.00;;;;;;4991503;28;20401;-42
2022/05/15 09:48:38;;;;;;;0.97;0.70;;;16.70;93.40;;;;;;5021295;28;20192;-47
2022/05/15 09:51:11;;;;;;;1.27;0.83;;;16.80;93.20;;;;;;5011518;28;20528;-43
2022/05/15 09:53:44;;;;;;;1.20;0.60;;;16.80;92.70;;;;;;5021826;28;20269;-44
2022/05/15 09:56:24;;;;;;;1.90;0.87;;;16.70;92.20;;;;;;5012269;28;20232;-45
2022/05/15 09:58:58;;;;;;;2.20;0.90;;;16.70;92.30;;;;;;5027381;28;20206;-45
2022/05/15 10:01:34;;;;;;;2.30;0.70;;;16.80;91.70;;;;;;5019558;28;20199;-43
2022/05/15 10:04:03;;;;;;;2.43;1.00;;;16.80;92.00;;;;;;5023005;28;20270;-44
2022/05/15 10:06:35;;;;;;;1.67;0.83;;;16.90;92.20;;;;;;5008695;28;20242;-43
2022/05/15 10:09:10;;;;;;;1.90;0.80;;;17.20;91.90;;;;;;5028782;28;20219;-42
2022/05/15 10:11:40;;;;;;;2.27;0.80;;;17.20;91.50;;;;;;5002358;28;20200;-43
2022/05/15 10:14:26;;;;;;;1.73;0.80;;;17.30;91.80;;;;;;5011844;28;20715;-45
2022/05/15 10:16:55;;;;;;;1.27;0.80;;;17.50;92.30;;;;;;5019394;28;20224;-44
2022/05/15 10:19:32;;;;;;;2.40;0.80;;;17.60;91.70;;;;;;5014715;28;20292;-44
2022/05/15 10:22:10;;;;;;;2.60;0.77;;;17.70;92.10;;;;;;5017715;28;20211;-43
2022/05/15 10:24:41;;;;;;;1.37;0.90;;;17.80;91.60;;;;;;5022155;28;20180;-44
2022/05/15 10:27:15;;;;;;;1.10;1.00;;;17.90;91.50;;;;;;5009302;28;20223;-44
2022/05/15 10:29:50;;;;;;;1.60;0.70;;;18.00;91.30;;;;;;5026483;28;20195;-46
2022/05/15 10:32:20;;;;;;;2.50;0.90;;;18.00;90.80;;;;;;5023054;28;20213;-46
2022/05/15 10:34:47;;;;;;;0.80;0.80;;;18.00;90.80;;;;;;5014699;28;20238;-47
2022/05/15 10:37:40;;;;;;;3.10;0.80;;;18.00;90.50;;;;;;5019887;28;20218;-43
2022/05/15 10:40:20;;;;;;;1.37;0.83;;;18.00;90.20;;;;;;5021546;28;20215;-43
2022/05/15 10:42:54;;;;;;;1.80;0.70;;;18.20;90.10;;;;;;5010185;28;20211;-43
2022/05/15 10:45:32;;;;;;;3.57;1.00;;;18.40;90.00;;;;;;5028408;28;20193;-43
2022/05/15 10:48:09;;;;;;;1.47;0.80;;;18.60;89.70;;;;;;5014668;28;20218;-45
2022/05/15 10:50:47;;;;;;;0.97;0.63;;;18.50;88.00;;;;;;5026267;28;20195;-44
2022/05/15 10:59:24;;;;;;;3.07;0.80;;;18.30;87.90;;;;;;5008437;28;20617;-43
2022/05/15 11:01:59;;;;;;;1.23;0.80;;;18.30;87.00;;;;;;5024108;28;20298;-45
2022/05/15 11:04:42;;;;;;;1.37;0.77;;;18.30;86.10;;;;;;5009712;28;20203;-43
2022/05/15 11:07:16;;;;;;;1.77;0.80;;;18.40;85.20;;;;;;5028114;28;20278;-44
2022/05/15 11:09:54;;;;;;;1.83;1.10;;;18.30;84.10;;;;;;5014923;28;20207;-44
2022/05/15 11:12:29;;;;;;;0.93;0.60;;;18.10;85.20;;;;;;5023745;28;20229;-46
2022/05/15 11:15:07;;;;;;;4.63;1.00;;;18.20;86.40;;;;;;5010418;28;20230;-44
2022/05/15 11:17:44;;;;;;;1.73;0.70;;;18.30;86.30;;;;;;5013213;28;20223;-44
2022/05/15 11:20:16;;;;;;;1.30;0.93;;;18.40;87.80;;;;;;5017181;28;20215;-44
2022/05/15 11:22:47;;;;;;;4.73;1.03;;;18.60;86.40;;;;;;5021437;28;20719;-46
2022/05/15 11:25:20;;;;;;;1.17;0.80;;;18.60;84.60;;;;;;5012503;28;20700;-45
2022/05/15 11:27:49;;;;;;;1.40;0.80;;;18.30;85.50;;;;;;5029267;28;20231;-45
2022/05/15 11:30:21;;;;;;;2.93;0.77;;;18.30;86.60;;;;;;5002889;28;20729;-46
2022/05/15 11:33:03;;;;;;;1.37;0.60;;;18.40;87.40;;;;;;5017186;28;20215;-43
2022/05/15 11:35:34;;;;;;;1.43;0.60;;;18.70;87.80;;;;;;5015458;28;20227;-46
2022/05/15 11:38:18;;;;;;;1.80;1.00;;;18.80;86.40;;;;;;5025176;28;20207;-46
2022/05/15 11:40:46;;;;;;;3.50;1.30;;;18.90;86.40;;;;;;5025321;28;20276;-44
2022/05/15 11:43:57;;;;;;;1.67;1.03;;;19.20;86.20;;;;;;5017816;28;20605;-44
2022/05/15 11:47:00;;;;;;;1.37;0.83;;;19.40;84.90;;;;;;4986430;28;20290;-44
2022/05/15 11:49:33;;;;;;;1.60;0.63;;;19.50;82.40;;;;;;5016111;28;20207;-48
2022/05/15 11:52:18;;;;;;;3.73;1.00;;;19.50;84.00;;;;;;5022245;28;21937;-45
2022/05/15 11:54:48;;;;;;;2.80;0.90;;;19.50;81.40;;;;;;5019592;28;20223;-45
2022/05/15 11:57:32;;;;;;;3.87;0.80;;;19.30;82.20;;;;;;5003437;28;20307;-44
2022/05/15 12:00:02;;;;;;;1.43;0.80;;;19.30;81.40;;;;;;5022171;28;20667;-45
2022/05/15 12:02:51;;;;;;;1.47;0.80;;;19.30;82.50;;;;;;5003484;28;24100;-44
2022/05/15 12:05:29;;;;;;;1.03;0.67;;;19.40;82.00;;;;;;5012222;28;20211;-45
2022/05/15 12:07:59;;;;;;;2.87;1.00;;;19.50;80.60;;;;;;5025302;28;20290;-45
2022/05/15 12:10:54;;;;;;;3.67;0.83;;;19.50;81.70;;;;;;5021679;28;20837;-44
2022/05/15 12:13:36;;;;;;;1.67;0.67;;;19.60;81.30;;;;;;5008566;28;20287;-47
2022/05/15 12:16:26;;;;;;;0.87;0.80;;;19.50;79.80;;;;;;5021718;28;20696;-46
2022/05/15 12:19:00;;;;;;;1.37;0.63;;;19.50;78.60;;;;;;5010206;28;20231;-43
2022/05/15 12:21:38;;;;;;;1.00;0.90;;;19.50;78.50;;;;;;5022586;28;20207;-44
2022/05/15 12:24:28;;;;;;;2.20;0.77;;;19.40;78.60;;;;;;5018943;28;20219;-43
2022/05/15 12:27:04;;;;;;;2.57;0.90;;;19.60;80.10;;;;;;5012891;28;20231;-43
2022/05/15 12:29:41;;;;;;;2.20;0.73;;;19.70;79.00;;;;;;5012101;28;20246;-44
2022/05/15 12:32:13;;;;;;;0.77;0.77;;;19.70;79.40;;;;;;5021245;28;20196;-43
2022/05/15 12:34:46;;;;;;;2.30;0.83;;;19.90;78.90;;;;;;5008145;28;20226;-45
2022/05/15 12:37:20;;;;;;;2.17;0.90;;;19.90;78.30;;;;;;5015327;28;20359;-42
2022/05/15 12:39:50;;;;;;;1.73;1.00;;;20.00;78.00;;;;;;5021692;28;20200;-44
2022/05/15 12:42:24;;;;;;;1.90;0.70;;;20.10;77.60;;;;;;5014597;28;20196;-45
2022/05/15 12:45:06;;;;;;;1.93;1.03;;;20.20;76.70;;;;;;5015917;28;20569;-46
2022/05/15 12:47:33;;;;;;;1.97;0.83;;;20.50;77.00;;;;;;5020400;28;21020;-47
2022/05/15 12:50:04;;;;;;;2.63;1.00;;;20.70;75.80;;;;;;5010936;28;20204;-47
2022/05/15 12:52:34;;;;;;;2.03;0.80;;;21.10;75.90;;;;;;5020158;28;20246;-46
2022/05/15 12:55:05;;;;;;;2.23;0.70;;;21.60;74.50;;;;;;5023305;28;20258;-45
2022/05/15 12:57:32;;;;;;;2.00;0.80;;;22.00;74.30;;;;;;5012873;28;20282;-44
2022/05/15 12:59:59;;;;;;;2.50;1.00;;;22.30;72.70;;;;;;5016429;28;20207;-46
2022/05/15 13:02:33;;;;;;;1.53;1.10;;;22.50;71.10;;;;;;5012749;28;20214;-44
2022/05/15 13:05:03;;;;;;;2.70;0.80;;;22.60;70.20;;;;;;5000591;28;20207;-46
2022/05/15 13:07:37;;;;;;;2.17;0.70;;;22.80;67.70;;;;;;5018509;28;20217;-44
2022/05/15 13:10:07;;;;;;;1.73;0.90;;;22.90;66.30;;;;;;5020839;28;20192;-46
2022/05/15 13:12:35;;;;;;;1.52;0.88;;;23.10;85.60;;;;;;5021167;28;20184;-47
2022/05/15 13:15:03;;;;;;;1.20;1.00;;;23.20;69.50;;;;;;5014013;28;20553;-46
2022/05/15 13:17:34;;;;;;;1.95;0.82;;;23.40;63.60;;;;;;5015791;28;20204;-45
2022/05/15 13:20:07;;;;;;;0.82;0.80;;;23.40;61.60;;;;;;5019477;28;20196;-45
2022/05/15 13:22:36;;;;;;;0.70;0.70;;;23.80;63.30;;;;;;5019454;28;20946;-45
2022/05/15 13:25:10;;;;;;;3.03;1.00;;;23.90;62.00;;;;;;5019670;28;20672;-48
2022/05/15 13:27:41;;;;;;;3.50;0.90;;;24.20;60.80;;;;;;5016350;28;20219;-44
2022/05/15 13:30:10;;;;;;;2.38;0.85;;;24.50;59.30;;;;;;5013300;28;20223;-47